Time;durP1;ratioP1;P1;durP2;ratioP2;P2;SDS_P1;SDS_P2;PMS_P1;PMS_P2;Temp;Humidity;BMP_temperature;BMP_pressure;BME280_temperature;BME280_humidity;BME280_pressure;Samples;Min_cycle;Max_cycle;Signal;HPM_P1;HPM_P2
2023/04/10 00:00:56;;;;;;;20.50;9.60;;;;;;;1.42;100.00;99337.31;4159425;28;20400;-71
2023/04/10 00:03:00;;;;;;;17.52;10.30;;;;;;;1.38;100.00;99334.34;4156814;28;20128;-71
2023/04/10 00:05:01;;;;;;;17.92;9.93;;;;;;;1.37;100.00;99340.09;4158859;28;20381;-71
2023/04/10 00:07:01;;;;;;;16.83;9.77;;;;;;;1.35;100.00;99339.59;4158897;28;20079;-71
2023/04/10 00:09:02;;;;;;;20.92;11.15;;;;;;;1.33;100.00;99341.81;4160362;28;20045;-71
2023/04/10 00:11:02;;;;;;;16.75;9.57;;;;;;;1.34;100.00;99327.88;4159045;28;20042;-71
2023/04/10 00:13:03;;;;;;;16.95;9.82;;;;;;;1.36;100.00;99341.22;4158385;28;20444;-71
2023/04/10 00:15:04;;;;;;;21.30;10.65;;;;;;;1.38;100.00;99339.78;4159021;28;20377;-71
2023/04/10 00:17:04;;;;;;;18.52;9.52;;;;;;;1.34;100.00;99343.44;4157666;28;20061;-71
2023/04/10 00:19:05;;;;;;;17.67;9.95;;;;;;;1.23;100.00;99340.03;4157334;28;20132;-71
2023/04/10 00:21:05;;;;;;;16.05;9.60;;;;;;;1.18;100.00;99333.84;4160033;28;20044;-71
2023/04/10 00:23:06;;;;;;;18.73;10.65;;;;;;;1.14;100.00;99336.34;4158993;28;20151;-71
2023/04/10 00:25:06;;;;;;;16.25;9.50;;;;;;;1.09;100.00;99333.72;4158928;28;20034;-71
2023/04/10 00:27:07;;;;;;;18.45;10.93;;;;;;;1.04;100.00;99334.59;4157367;28;20490;-71
2023/04/10 00:29:07;;;;;;;17.88;9.20;;;;;;;1.03;100.00;99322.06;4158058;28;20041;-71
2023/04/10 00:31:08;;;;;;;20.10;10.55;;;;;;;1.03;100.00;99327.50;4163427;28;20041;-71
2023/04/10 00:33:08;;;;;;;18.13;10.07;;;;;;;1.02;100.00;99325.91;4156943;28;20057;-71
2023/04/10 00:35:08;;;;;;;17.77;10.32;;;;;;;0.95;100.00;99321.91;4158178;28;20394;-71
2023/04/10 00:37:09;;;;;;;17.88;9.35;;;;;;;0.89;100.00;99315.72;4159716;28;20049;-71
2023/04/10 00:39:09;;;;;;;16.17;9.45;;;;;;;0.86;100.00;99307.34;4158136;28;20509;-71
2023/04/10 00:41:10;;;;;;;15.30;9.90;;;;;;;0.83;100.00;99312.28;4157598;28;20087;-71
2023/04/10 00:43:10;;;;;;;16.63;9.82;;;;;;;0.81;100.00;99302.75;4161108;28;20123;-71
2023/04/10 00:45:10;;;;;;;14.40;8.93;;;;;;;0.87;100.00;99314.41;4164560;28;20079;-71
2023/04/10 00:47:13;;;;;;;17.77;9.55;;;;;;;0.91;100.00;99315.41;4160598;28;20080;-71
2023/04/10 00:49:13;;;;;;;17.42;10.00;;;;;;;0.94;100.00;99317.56;4161877;28;20046;-71
2023/04/10 00:51:14;;;;;;;18.27;9.90;;;;;;;0.96;100.00;99309.91;4161591;28;20508;-71
2023/04/10 00:53:14;;;;;;;18.02;10.30;;;;;;;0.98;100.00;99318.59;4161274;28;20069;-71
2023/04/10 00:55:15;;;;;;;16.67;9.40;;;;;;;0.96;100.00;99305.25;4161920;28;20042;-71
2023/04/10 00:57:16;;;;;;;17.58;10.27;;;;;;;0.94;100.00;99312.94;4163613;28;20457;-71
2023/04/10 00:59:17;;;;;;;21.20;11.30;;;;;;;0.89;100.00;99304.81;4160890;28;20500;-71
2023/04/10 01:01:17;;;;;;;18.45;9.90;;;;;;;0.86;100.00;99304.59;4160953;28;20049;-71
2023/04/10 01:03:20;;;;;;;15.40;10.07;;;;;;;0.86;100.00;99305.41;4161966;28;20080;-71
2023/04/10 01:05:21;;;;;;;16.77;9.52;;;;;;;0.79;100.00;99305.78;4161027;28;20049;-71
2023/04/10 01:08:23;;;;;;;17.13;10.15;;;;;;;0.77;100.00;99299.81;4160303;28;20045;-71
2023/04/10 01:10:33;;;;;;;15.70;9.18;;;;;;;0.75;100.00;99299.31;4145540;28;20060;-71
2023/04/10 01:12:49;;;;;;;15.38;9.32;;;;;;;0.78;100.00;99298.72;4157057;28;20172;-71
2023/04/10 01:15:14;;;;;;;17.88;9.95;;;;;;;0.72;100.00;99299.88;4162641;28;20132;-71
2023/04/10 01:17:28;;;;;;;20.45;8.95;;;;;;;0.66;100.00;99300.22;4162819;28;20154;-71
2023/04/10 01:20:03;;;;;;;17.52;9.75;;;;;;;0.69;100.00;99295.03;4161603;28;20136;-71
2023/04/10 01:22:09;;;;;;;16.98;9.02;;;;;;;0.76;100.00;99302.84;4173241;28;20074;-71
2023/04/10 01:24:18;;;;;;;16.75;10.07;;;;;;;0.78;100.00;99309.59;4160601;28;20064;-71
2023/04/10 01:26:38;;;;;;;30.38;11.00;;;;;;;0.83;100.00;99298.66;4164263;28;20355;-71
2023/04/10 01:28:50;;;;;;;18.55;10.05;;;;;;;0.79;100.00;99299.53;4161827;28;20048;-71
2023/04/10 01:30:54;;;;;;;18.73;11.05;;;;;;;0.72;100.00;99299.88;4162246;28;20057;-71
2023/04/10 01:32:59;;;;;;;18.85;10.00;;;;;;;0.62;100.00;99300.03;4162715;28;20386;-71
2023/04/10 01:35:05;;;;;;;18.08;10.82;;;;;;;0.54;100.00;99289.78;4161205;28;20037;-71
2023/04/10 01:37:19;;;;;;;18.15;9.65;;;;;;;0.47;100.00;99303.75;4161226;28;20393;-71
2023/04/10 01:39:21;;;;;;;15.73;9.50;;;;;;;0.41;100.00;99296.72;4162216;28;20584;-71
2023/04/10 01:41:24;;;;;;;19.50;9.73;;;;;;;0.37;100.00;99306.59;4161764;28;20037;-71
2023/04/10 01:43:25;;;;;;;;;;;;;;;0.31;100.00;99302.31;4161837;28;20425;-71
2023/04/10 01:45:27;;;;;;;19.35;10.23;;;;;;;0.21;100.00;99305.16;4162275;28;19925;-71
2023/04/10 01:47:29;;;;;;;19.25;9.68;;;;;;;0.13;100.00;99303.88;4161125;28;20053;-71
2023/04/10 01:49:31;;;;;;;18.25;10.48;;;;;;;0.10;100.00;99309.09;4161395;28;20087;-71
2023/04/10 01:51:33;;;;;;;18.58;9.77;;;;;;;0.06;100.00;99308.03;4162331;28;20059;-71
2023/04/10 01:53:35;;;;;;;16.35;9.63;;;;;;;0.04;100.00;99316.50;4160340;28;20052;-71
2023/04/10 01:55:37;;;;;;;16.73;10.93;;;;;;;0.03;100.00;99314.06;4160163;28;20124;-71
2023/04/10 01:57:37;;;;;;;22.00;11.27;;;;;;;-0.01;100.00;99308.38;4163637;28;20079;-71
2023/04/10 01:59:38;;;;;;;18.80;10.13;;;;;;;-0.03;100.00;99313.31;4161642;28;20276;-71
2023/04/10 02:01:38;;;;;;;17.83;10.23;;;;;;;-0.02;100.00;99313.00;4160440;28;20111;-71
2023/04/10 02:03:39;;;;;;;16.25;9.38;;;;;;;0.05;100.00;99312.66;4160924;28;20182;-71
2023/04/10 02:05:55;;;;;;;19.15;11.05;;;;;;;0.05;100.00;99306.41;4161280;28;20103;-71
2023/04/10 02:08:11;;;;;;;15.18;9.85;;;;;;;0.10;100.00;99306.38;4161633;28;20115;-70
2023/04/10 02:10:23;;;;;;;17.58;9.65;;;;;;;0.12;100.00;99309.63;4159707;28;20049;-71
2023/04/10 02:12:35;;;;;;;21.15;10.60;;;;;;;0.06;100.00;99311.56;4161392;28;20041;-71
2023/04/10 02:14:40;;;;;;;20.10;9.97;;;;;;;0.07;100.00;99313.19;4163119;28;20409;-71
2023/04/10 02:16:42;;;;;;;19.05;9.60;;;;;;;0.05;100.00;99312.66;4160865;28;20045;-71
2023/04/10 02:18:44;;;;;;;17.75;9.98;;;;;;;0.03;100.00;99319.50;4161288;28;20071;-71
2023/04/10 02:20:45;;;;;;;20.27;10.07;;;;;;;0.10;100.00;99311.81;4159926;28;20057;-71
2023/04/10 02:22:46;;;;;;;28.58;10.43;;;;;;;0.07;100.00;99309.66;4159881;28;20366;-71
2023/04/10 02:24:47;;;;;;;15.95;9.38;;;;;;;-0.01;100.00;99303.75;4163569;28;20180;-70
2023/04/10 02:26:50;;;;;;;21.30;9.80;;;;;;;-0.07;100.00;99306.81;4165321;28;20033;-71
2023/04/10 02:28:50;;;;;;;16.95;9.98;;;;;;;-0.08;100.00;99311.47;4161580;28;20111;-70
2023/04/10 02:30:50;;;;;;;18.40;10.15;;;;;;;-0.07;100.00;99304.91;4160224;28;20046;-70
2023/04/10 02:32:51;;;;;;;19.13;10.05;;;;;;;-0.02;100.00;99301.31;4160933;28;20077;-71
2023/04/10 02:34:51;;;;;;;18.05;10.32;;;;;;;-0.02;100.00;99304.84;4160171;28;20077;-71
2023/04/10 02:36:52;;;;;;;19.75;10.45;;;;;;;-0.03;100.00;99305.13;4160497;28;20037;-70
2023/04/10 02:38:53;;;;;;;18.15;9.85;;;;;;;-0.05;100.00;99308.16;4159994;28;20575;-71
2023/04/10 02:40:53;;;;;;;16.08;9.15;;;;;;;-0.06;100.00;99297.56;4161579;28;20452;-70
2023/04/10 02:42:53;;;;;;;19.13;9.90;;;;;;;-0.06;100.00;99313.88;4161424;28;20139;-70
2023/04/10 02:44:54;;;;;;;19.45;9.95;;;;;;;-0.12;100.00;99310.41;4159992;28;20320;-70
2023/04/10 02:46:54;;;;;;;15.98;9.57;;;;;;;-0.19;100.00;99320.81;4160384;28;20107;-70
2023/04/10 02:48:55;;;;;;;16.33;8.70;;;;;;;-0.26;100.00;99311.34;4161703;28;20370;-70
2023/04/10 02:50:57;;;;;;;18.42;9.30;;;;;;;-0.25;100.00;99311.06;4161286;28;20056;-70
2023/04/10 02:52:58;;;;;;;19.98;10.45;;;;;;;-0.22;100.00;99305.06;4159401;28;20089;-70
2023/04/10 02:54:58;;;;;;;16.38;8.73;;;;;;;-0.25;100.00;99305.63;4160349;28;20045;-70
2023/04/10 02:56:59;;;;;;;17.75;9.70;;;;;;;-0.28;100.00;99306.22;4160246;28;20187;-70
2023/04/10 02:59:00;;;;;;;18.33;10.15;;;;;;;-0.33;100.00;99304.34;4162112;28;20132;-70
2023/04/10 03:01:00;;;;;;;17.92;9.70;;;;;;;-0.33;100.00;99307.09;4163871;28;20084;-70
2023/04/10 03:03:01;;;;;;;26.25;12.40;;;;;;;-0.37;100.00;99310.66;4160767;28;20061;-70
2023/04/10 03:05:01;;;;;;;19.95;12.13;;;;;;;-0.39;100.00;99297.34;4159160;28;20431;-70
2023/04/10 03:07:01;;;;;;;20.73;10.70;;;;;;;-0.36;100.00;99314.97;4160560;28;20053;-70
2023/04/10 03:09:02;;;;;;;22.38;10.82;;;;;;;-0.40;100.00;99311.22;4160066;28;20046;-70
2023/04/10 03:11:02;;;;;;;21.23;11.27;;;;;;;-0.36;100.00;99306.81;4160276;28;20661;-70
2023/04/10 03:13:03;;;;;;;21.55;10.95;;;;;;;-0.39;100.00;99307.41;4159366;28;20045;-70
2023/04/10 03:15:03;;;;;;;21.48;10.55;;;;;;;-0.40;100.00;99303.06;4160902;28;20080;-70
2023/04/10 03:17:04;;;;;;;22.98;11.68;;;;;;;-0.40;100.00;99308.50;4159728;28;20466;-70
2023/04/10 03:19:04;;;;;;;24.45;11.27;;;;;;;-0.35;100.00;99301.09;4159866;28;20063;-70
2023/04/10 03:21:05;;;;;;;20.17;10.75;;;;;;;-0.41;100.00;99299.53;4160904;28;20096;-70
2023/04/10 03:23:06;;;;;;;19.17;10.98;;;;;;;-0.46;100.00;99298.75;4163897;28;20053;-70
2023/04/10 03:25:06;;;;;;;22.40;11.10;;;;;;;-0.52;100.00;99297.19;4162128;28;20072;-70
2023/04/10 03:27:06;;;;;;;22.52;10.05;;;;;;;-0.57;100.00;99296.16;4165122;28;20037;-70
2023/04/10 03:29:07;;;;;;;16.83;9.55;;;;;;;-0.55;100.00;99292.31;4159772;28;20037;-70
2023/04/10 03:31:08;;;;;;;19.52;10.80;;;;;;;-0.58;100.00;99305.41;4160202;28;20045;-70
2023/04/10 03:33:08;;;;;;;17.17;9.55;;;;;;;-0.53;100.00;99306.44;4160162;28;20041;-70
2023/04/10 03:35:09;;;;;;;19.42;9.00;;;;;;;-0.54;100.00;99311.06;4160434;28;20041;-70
2023/04/10 03:37:10;;;;;;;16.85;9.43;;;;;;;-0.53;100.00;99306.44;4158780;28;20075;-70
2023/04/10 03:39:10;;;;;;;16.13;9.50;;;;;;;-0.58;100.00;99305.41;4160266;28;20100;-70
2023/04/10 03:41:10;;;;;;;20.65;10.27;;;;;;;-0.60;100.00;99299.41;4160549;28;20050;-70
2023/04/10 03:43:13;;;;;;;17.65;9.05;;;;;;;-0.64;100.00;99298.38;4158488;28;20136;-70
2023/04/10 03:45:13;;;;;;;22.13;9.52;;;;;;;-0.60;100.00;99304.84;4160554;28;20043;-70
2023/04/10 03:47:13;;;;;;;20.83;10.20;;;;;;;-0.54;100.00;99299.38;4159346;28;20479;-70
2023/04/10 03:49:15;;;;;;;21.63;10.35;;;;;;;-0.54;100.00;99307.53;4165682;28;20033;-70
2023/04/10 03:51:15;;;;;;;20.55;9.38;;;;;;;-0.61;100.00;99297.78;4161340;28;20044;-70
2023/04/10 03:53:16;;;;;;;20.17;10.38;;;;;;;-0.57;100.00;99298.88;4158704;28;20045;-70
2023/04/10 03:55:19;;;;;;;21.40;10.18;;;;;;;-0.55;100.00;99290.41;4160232;28;20171;-70
2023/04/10 03:57:20;;;;;;;22.63;10.35;;;;;;;-0.50;100.00;99300.41;4158907;28;20393;-70
2023/04/10 03:59:20;;;;;;;21.25;10.85;;;;;;;-0.59;100.00;99300.22;4159138;28;20040;-70
2023/04/10 04:01:21;;;;;;;17.45;9.38;;;;;;;-0.68;100.00;99300.03;4162576;28;20404;-70
2023/04/10 04:03:22;;;;;;;16.08;9.05;;;;;;;-0.64;100.00;99298.38;4160585;28;20050;-70
2023/04/10 04:05:22;;;;;;;17.02;9.23;;;;;;;-0.63;100.00;99300.00;4163099;28;20087;-70
2023/04/10 04:07:22;;;;;;;19.35;10.07;;;;;;;-0.61;100.00;99297.78;4142552;28;20470;-70
2023/04/10 04:09:23;;;;;;;21.90;10.75;;;;;;;-0.55;100.00;99298.56;4159896;28;20084;-70
2023/04/10 04:11:23;;;;;;;17.90;10.65;;;;;;;-0.54;100.00;99292.03;4158571;28;20168;-70
2023/04/10 04:13:23;;;;;;;22.25;10.98;;;;;;;-0.50;100.00;99289.53;4160887;28;20048;-70
2023/04/10 04:15:24;;;;;;;20.20;10.55;;;;;;;-0.47;100.00;99291.72;4159845;28;20119;-70
2023/04/10 04:17:24;;;;;;;19.73;9.95;;;;;;;-0.50;100.00;99293.06;4160184;28;20394;-70
2023/04/10 04:19:24;;;;;;;21.77;10.63;;;;;;;-0.52;100.00;99295.28;4161725;28;20049;-70
2023/04/10 04:21:25;;;;;;;20.65;9.95;;;;;;;-0.55;100.00;99290.41;4163720;28;20049;-70
2023/04/10 04:23:25;;;;;;;20.77;10.85;;;;;;;-0.60;100.00;99285.81;4162362;28;20048;-70
2023/04/10 04:25:26;;;;;;;19.17;10.68;;;;;;;-0.58;100.00;99283.66;4162775;28;20055;-70
2023/04/10 04:27:26;;;;;;;18.88;10.05;;;;;;;-0.50;100.00;99282.19;4166496;28;20049;-70
2023/04/10 04:29:26;;;;;;;20.55;10.27;;;;;;;-0.53;100.00;99285.50;4167703;28;20034;-70
2023/04/10 04:31:31;;;;;;;17.75;9.68;;;;;;;-0.60;100.00;99274.94;4162887;28;20053;-70
2023/04/10 04:33:31;;;;;;;19.77;10.07;;;;;;;-0.61;100.00;99295.06;4160558;28;20033;-70
2023/04/10 04:35:32;;;;;;;17.80;10.48;;;;;;;-0.61;100.00;99291.53;4164070;28;20041;-70
2023/04/10 04:37:32;;;;;;;20.58;11.57;;;;;;;-0.60;100.00;99290.44;4162496;28;20040;-70
2023/04/10 04:39:32;;;;;;;20.25;10.18;;;;;;;-0.69;100.00;99292.97;4161405;28;20394;-70
2023/04/10 04:41:33;;;;;;;21.27;10.77;;;;;;;-0.69;100.00;99284.81;4162245;28;20041;-70
2023/04/10 04:43:33;;;;;;;22.00;11.57;;;;;;;-0.67;100.00;99301.63;4162755;28;20428;-70
2023/04/10 04:45:33;;;;;;;25.27;11.43;;;;;;;-0.68;100.00;99289.16;4163549;28;20064;-70
2023/04/10 04:47:34;;;;;;;25.50;11.32;;;;;;;-0.66;100.00;99302.47;4160857;28;20049;-70
2023/04/10 04:49:34;;;;;;;18.00;10.40;;;;;;;-0.62;100.00;99300.81;4162261;28;20478;-70
2023/04/10 04:51:35;;;;;;;18.98;10.48;;;;;;;-0.63;100.00;99302.72;4163007;28;20055;-70
2023/04/10 04:53:36;;;;;;;17.75;9.48;;;;;;;-0.62;100.00;99300.81;4160090;28;20045;-70
2023/04/10 04:55:36;;;;;;;18.70;9.20;;;;;;;-0.67;100.00;99304.34;4146515;28;20057;-70
2023/04/10 04:57:36;;;;;;;19.30;9.57;;;;;;;-0.75;100.00;99298.72;4166615;28;20042;-70
2023/04/10 04:59:37;;;;;;;16.08;9.30;;;;;;;-0.81;100.00;99303.41;4161672;28;20061;-70
2023/04/10 05:01:37;;;;;;;18.27;9.18;;;;;;;-0.78;100.00;99293.88;4163044;28;20053;-70
2023/04/10 05:03:37;;;;;;;11.85;7.80;;;;;;;-0.81;100.00;99299.88;4161370;28;20050;-70
2023/04/10 05:05:38;;;;;;;14.75;8.27;;;;;;;-0.86;100.00;99290.66;4162521;28;20073;-70
2023/04/10 05:07:38;;;;;;;15.80;8.57;;;;;;;-0.86;100.00;99287.13;4165693;28;20044;-70
2023/04/10 05:09:39;;;;;;;14.07;7.55;;;;;;;-0.87;100.00;99299.09;4167067;28;20521;-70
2023/04/10 05:11:39;;;;;;;15.70;9.48;;;;;;;-0.88;100.00;99297.47;4162664;28;20073;-70
2023/04/10 05:13:40;;;;;;;17.02;8.45;;;;;;;-0.88;100.00;99300.19;4165299;28;20041;-70
2023/04/10 05:15:40;;;;;;;15.18;8.05;;;;;;;-0.87;100.00;99290.94;4163627;28;20486;-70
2023/04/10 05:17:41;;;;;;;14.25;8.07;;;;;;;-0.86;100.00;99293.38;4161595;28;20215;-70
2023/04/10 05:19:41;;;;;;;15.00;7.90;;;;;;;-0.81;100.00;99305.31;4161119;28;20126;-70
2023/04/10 05:21:42;;;;;;;16.10;8.57;;;;;;;-0.73;100.00;99299.28;4161744;28;20477;-70
2023/04/10 05:23:42;;;;;;;18.55;9.35;;;;;;;-0.70;100.00;99296.78;4162934;28;20052;-70
2023/04/10 05:25:43;;;;;;;22.80;11.27;;;;;;;-0.68;100.00;99294.59;4162446;28;20151;-70
2023/04/10 05:27:43;;;;;;;53.28;20.63;;;;;;;-0.63;100.00;99308.16;4165929;28;20516;-70
2023/04/10 05:29:44;;;;;;;62.08;24.85;;;;;;;-0.61;100.00;99305.94;4165027;28;20053;-70
2023/04/10 05:31:44;;;;;;;52.65;22.98;;;;;;;-0.59;100.00;99303.75;4161240;28;20466;-70
2023/04/10 05:33:44;;;;;;;35.88;16.33;;;;;;;-0.46;100.00;99309.63;4166439;28;20029;-70
2023/04/10 05:35:45;;;;;;;33.85;15.80;;;;;;;-0.42;100.00;99307.97;4163753;28;20052;-70
2023/04/10 05:37:46;;;;;;;36.80;15.23;;;;;;;-0.35;100.00;99313.88;4161632;28;20109;-70
2023/04/10 05:39:46;;;;;;;31.00;14.88;;;;;;;-0.31;100.00;99306.78;4161606;28;20469;-70
2023/04/10 05:41:46;;;;;;;45.78;17.10;;;;;;;-0.27;100.00;99310.53;4161407;28;20065;-70
2023/04/10 05:43:46;;;;;;;41.88;16.95;;;;;;;-0.25;100.00;99302.91;4160788;28;20084;-70
2023/04/10 05:45:47;;;;;;;54.17;21.13;;;;;;;-0.23;100.00;99303.44;4160839;28;20052;-70
2023/04/10 05:47:47;;;;;;;40.55;18.95;;;;;;;-0.20;100.00;99304.78;4161030;28;20053;-70
2023/04/10 05:49:47;;;;;;;35.75;19.00;;;;;;;-0.10;100.00;99305.47;4161445;28;20036;-70
2023/04/10 05:51:50;;;;;;;42.20;20.10;;;;;;;-0.01;100.00;99305.66;4160616;28;20069;-70
2023/04/10 05:53:51;;;;;;;43.55;19.35;;;;;;;0.11;100.00;99318.88;4160619;28;20350;-70
2023/04/10 05:55:51;;;;;;;46.00;19.63;;;;;;;0.17;100.00;99310.38;4161459;28;20047;-70
2023/04/10 05:57:52;;;;;;;34.05;16.95;;;;;;;0.21;100.00;99319.56;4161859;28;20041;-70
2023/04/10 05:59:53;;;;;;;33.67;16.30;;;;;;;0.27;100.00;99310.25;4160917;28;20056;-70
2023/04/10 06:01:53;;;;;;;37.97;18.55;;;;;;;0.35;100.00;99318.88;4175743;28;20165;-70
2023/04/10 06:03:53;;;;;;;31.88;14.68;;;;;;;0.42;100.00;99313.91;4162104;28;20156;-70
2023/04/10 06:05:53;;;;;;;37.08;14.27;;;;;;;0.50;100.00;99329.59;4159920;28;20073;-70
2023/04/10 06:07:54;;;;;;;27.95;15.13;;;;;;;0.54;100.00;99319.72;4161712;28;20089;-70
2023/04/10 06:09:54;;;;;;;28.52;14.20;;;;;;;0.60;100.00;99320.50;4162417;28;20049;-70
2023/04/10 06:11:55;;;;;;;30.48;15.20;;;;;;;0.67;100.00;99315.50;4162660;28;20045;-70
2023/04/10 06:13:55;;;;;;;28.13;13.55;;;;;;;0.74;100.00;99318.66;4159834;28;20089;-70
2023/04/10 06:15:56;;;;;;;25.48;13.65;;;;;;;0.78;100.00;99315.06;4165686;28;20063;-70
2023/04/10 06:17:56;;;;;;;23.70;12.65;;;;;;;0.86;100.00;99310.88;4162004;28;20047;-70
2023/04/10 06:19:59;;;;;;;25.10;13.15;;;;;;;0.95;100.00;99317.28;4167129;28;20640;-70
2023/04/10 06:22:00;;;;;;;25.30;13.50;;;;;;;1.03;100.00;99316.63;4160688;28;20041;-70
2023/04/10 06:24:00;;;;;;;27.00;12.52;;;;;;;1.11;100.00;99315.94;4160216;28;20178;-70
2023/04/10 06:26:02;;;;;;;21.33;11.45;;;;;;;1.19;100.00;99310.94;4161017;28;20046;-70
2023/04/10 06:28:02;;;;;;;28.63;12.27;;;;;;;1.27;100.00;99310.28;4161676;28;20501;-71
2023/04/10 06:30:03;;;;;;;31.35;14.48;;;;;;;1.36;100.00;99305.75;4163214;28;20025;-71
2023/04/10 06:32:03;;;;;;;30.30;15.10;;;;;;;1.45;100.00;99303.97;4162491;28;20095;-70
2023/04/10 06:34:04;;;;;;;25.25;13.90;;;;;;;1.50;100.00;99305.81;4158690;28;20067;-71
2023/04/10 06:36:05;;;;;;;30.50;12.77;;;;;;;1.60;100.00;99306.44;4166854;28;20496;-71
2023/04/10 06:38:06;;;;;;;23.85;12.50;;;;;;;1.68;100.00;99299.50;4160980;28;20052;-71
2023/04/10 06:40:12;;;;;;;26.30;13.77;;;;;;;1.78;100.00;99298.50;4161771;28;20016;-70
2023/04/10 06:42:12;;;;;;;24.45;13.02;;;;;;;1.86;100.00;99284.16;4165006;28;20087;-70
2023/04/10 06:44:13;;;;;;;23.23;12.60;;;;;;;1.98;100.00;99298.94;4160847;28;20120;-71
2023/04/10 06:46:14;;;;;;;27.23;13.32;;;;;;;2.10;100.00;99298.44;4162289;28;20132;-70
2023/04/10 06:48:15;;;;;;;22.77;12.25;;;;;;;2.20;100.00;99284.59;4159279;28;20079;-71
2023/04/10 06:50:15;;;;;;;25.15;14.18;;;;;;;2.32;100.00;99288.75;4108473;28;20045;-70
2023/04/10 06:52:16;;;;;;;26.33;12.23;;;;;;;2.40;100.00;99280.66;4160017;28;20029;-70
2023/04/10 06:54:16;;;;;;;21.30;11.30;;;;;;;2.52;100.00;99288.34;4160330;28;20017;-71
2023/04/10 06:56:17;;;;;;;21.05;12.43;;;;;;;2.62;100.00;99287.31;4160539;28;20032;-71
2023/04/10 06:58:17;;;;;;;31.83;12.38;;;;;;;2.70;100.00;99283.84;4160363;28;20025;-71
2023/04/10 07:00:18;;;;;;;21.23;11.48;;;;;;;2.82;100.00;99286.88;4165473;28;20202;-71
2023/04/10 07:02:19;;;;;;;22.13;11.85;;;;;;;2.96;100.00;99281.34;4159804;28;20447;-70
2023/04/10 07:04:19;;;;;;;23.98;11.65;;;;;;;3.11;100.00;99286.47;4161031;28;20044;-70
2023/04/10 07:06:19;;;;;;;20.30;11.98;;;;;;;3.22;100.00;99287.84;4167711;28;20055;-71
2023/04/10 07:08:20;;;;;;;26.40;13.82;;;;;;;3.31;100.00;99287.91;4160748;28;20438;-71
2023/04/10 07:10:20;;;;;;;23.35;12.32;;;;;;;3.37;100.00;99276.53;4161187;28;20069;-71
2023/04/10 07:12:21;;;;;;;19.88;11.57;;;;;;;3.41;100.00;99271.28;4159855;28;20073;-71
2023/04/10 07:14:22;;;;;;;23.17;12.68;;;;;;;3.55;100.00;99271.19;4159227;28;20049;-71
2023/04/10 07:16:22;;;;;;;27.90;13.65;;;;;;;3.70;100.00;99275.47;4160230;28;20103;-71
2023/04/10 07:18:22;;;;;;;25.58;13.93;;;;;;;3.78;100.00;99261.03;4159843;28;20381;-71
2023/04/10 07:20:22;;;;;;;24.15;14.25;;;;;;;3.89;100.00;99270.59;4160596;28;20054;-71
2023/04/10 07:22:23;;;;;;;22.13;13.68;;;;;;;4.05;100.00;99270.97;4160065;28;20048;-71
2023/04/10 07:24:23;;;;;;;24.25;13.32;;;;;;;4.18;100.00;99264.59;4158677;28;20076;-71
2023/04/10 07:26:24;;;;;;;22.80;12.55;;;;;;;4.30;100.00;99258.50;4160305;28;20116;-71
2023/04/10 07:28:25;;;;;;;25.30;13.13;;;;;;;4.42;100.00;99259.53;4158932;28;20059;-71
2023/04/10 07:30:25;;;;;;;19.42;12.00;;;;;;;4.57;100.00;99255.53;4159364;28;20049;-71
2023/04/10 07:32:25;;;;;;;26.85;13.88;;;;;;;4.69;100.00;99252.16;4159040;28;20424;-71
2023/04/10 07:34:26;;;;;;;23.13;13.40;;;;;;;4.85;100.00;99257.97;4164961;28;20046;-71
2023/04/10 07:36:26;;;;;;;23.52;13.18;;;;;;;5.01;100.00;99248.16;4162419;28;20037;-71
2023/04/10 07:38:27;;;;;;;24.25;13.35;;;;;;;5.12;100.00;99241.22;4159181;28;20479;-71
2023/04/10 07:40:27;;;;;;;23.80;14.30;;;;;;;5.31;100.00;99243.63;4160251;28;20085;-71
2023/04/10 07:42:27;;;;;;;26.83;14.95;;;;;;;5.48;100.00;99240.88;4159546;28;20417;-71
2023/04/10 07:44:27;;;;;;;24.25;13.07;;;;;;;5.62;100.00;99240.66;4159322;28;20043;-71
2023/04/10 07:46:28;;;;;;;24.70;14.02;;;;;;;5.78;100.00;99233.50;4175449;28;20237;-71
2023/04/10 07:48:28;;;;;;;23.70;14.02;;;;;;;5.86;100.00;99232.66;4161823;28;20554;-71
2023/04/10 07:50:29;;;;;;;22.70;13.60;;;;;;;6.01;100.00;99227.81;4163073;28;20405;-71
2023/04/10 07:52:29;;;;;;;21.65;12.35;;;;;;;6.12;100.00;99226.28;4158412;28;20136;-71
2023/04/10 07:54:33;;;;;;;20.83;12.90;;;;;;;6.26;100.00;99229.63;4159021;28;20280;-71
2023/04/10 07:56:33;;;;;;;27.05;14.95;;;;;;;6.38;100.00;99228.94;4159895;28;21927;-71
2023/04/10 07:58:34;;;;;;;22.73;13.27;;;;;;;6.51;100.00;99227.88;4161188;28;20045;-71
2023/04/10 08:00:35;;;;;;;20.38;12.90;;;;;;;6.60;100.00;99219.56;4159589;28;20485;-71
2023/04/10 08:02:36;;;;;;;20.42;12.68;;;;;;;6.70;100.00;99220.00;4158812;28;20045;-71
2023/04/10 08:04:36;;;;;;;21.48;13.00;;;;;;;6.77;100.00;99213.94;4159001;28;20132;-71
2023/04/10 08:06:36;;;;;;;20.98;12.55;;;;;;;6.86;100.00;99211.13;4159418;28;20393;-71
2023/04/10 08:08:38;;;;;;;20.27;11.70;;;;;;;6.96;100.00;99211.56;4158914;28;20168;-71
2023/04/10 08:10:38;;;;;;;21.02;12.57;;;;;;;7.04;100.00;99207.94;4159642;28;20164;-71
2023/04/10 08:12:39;;;;;;;22.45;13.30;;;;;;;7.18;100.00;99207.63;4158443;28;20167;-71
2023/04/10 08:14:39;;;;;;;21.20;12.38;;;;;;;7.33;100.00;99207.00;4159256;28;20390;-71
2023/04/10 08:16:40;;;;;;;20.98;12.65;;;;;;;7.45;100.00;99202.69;4159748;28;20556;-71
2023/04/10 08:18:40;;;;;;;20.33;12.05;;;;;;;7.53;100.00;99207.28;4159846;28;20061;-71
2023/04/10 08:20:40;;;;;;;18.85;11.82;;;;;;;7.71;100.00;99208.72;4159002;28;20099;-71
2023/04/10 08:22:41;;;;;;;19.08;11.82;;;;;;;7.90;100.00;99205.41;4161984;28;20394;-71
2023/04/10 08:24:41;;;;;;;21.88;12.90;;;;;;;8.05;100.00;99206.69;4160117;28;20042;-71
2023/04/10 08:26:41;;;;;;;17.52;11.45;;;;;;;8.09;100.00;99213.94;4166293;28;20124;-71
2023/04/10 08:28:46;;;;;;;19.35;11.95;;;;;;;8.16;98.44;99210.59;4160565;28;20133;-71
2023/04/10 08:30:46;;;;;;;20.10;11.63;;;;;;;8.24;99.29;99209.69;4162328;28;20136;-71
2023/04/10 08:32:46;;;;;;;21.65;12.05;;;;;;;8.32;99.87;99202.44;4162080;28;20089;-71
2023/04/10 08:34:48;;;;;;;19.38;11.73;;;;;;;8.39;99.78;99205.47;4163004;28;20123;-71
2023/04/10 08:36:49;;;;;;;20.35;11.93;;;;;;;8.45;98.04;99204.09;4160497;28;20478;-70
2023/04/10 08:38:49;;;;;;;19.95;11.57;;;;;;;8.62;94.92;99192.00;4159117;28;20048;-71
2023/04/10 08:40:50;;;;;;;18.02;11.43;;;;;;;8.70;96.14;99191.88;4160114;28;20045;-71
2023/04/10 08:42:50;;;;;;;20.80;12.18;;;;;;;8.98;99.96;99193.84;4157648;28;20041;-71
2023/04/10 08:44:51;;;;;;;20.42;11.57;;;;;;;9.09;96.99;99183.13;4160513;28;20052;-71
2023/04/10 08:46:52;;;;;;;18.73;11.05;;;;;;;9.21;94.10;99175.59;4160688;28;20099;-72
2023/04/10 08:49:00;;;;;;;18.83;11.82;;;;;;;9.37;93.84;99177.59;4158620;28;20045;-72
2023/04/10 08:51:03;;;;;;;19.80;11.80;;;;;;;9.40;92.40;99177.69;4159524;28;20794;-71
2023/04/10 08:53:09;;;;;;;15.60;10.50;;;;;;;9.48;89.76;99171.19;4158504;28;20041;-71
2023/04/10 08:55:12;;;;;;;15.40;9.63;;;;;;;9.52;92.06;99168.56;4161300;28;20060;-71
2023/04/10 08:57:19;;;;;;;16.50;10.25;;;;;;;9.52;90.65;99166.59;4159672;28;20044;-71
2023/04/10 08:59:19;;;;;;;16.63;10.70;;;;;;;9.70;88.67;99166.25;4159923;28;20037;-71
2023/04/10 09:01:20;;;;;;;15.65;9.98;;;;;;;9.70;87.62;99163.47;4178956;28;20421;-71
2023/04/10 09:03:21;;;;;;;15.45;9.90;;;;;;;9.75;88.28;99160.44;4157790;28;20052;-71
2023/04/10 09:05:22;;;;;;;15.30;10.45;;;;;;;9.90;90.64;99154.13;4161818;28;20120;-71
2023/04/10 09:07:23;;;;;;;13.73;9.38;;;;;;;10.04;86.66;99151.72;4163333;28;20041;-71
2023/04/10 09:09:23;;;;;;;13.57;8.75;;;;;;;10.12;85.15;99152.69;4163264;28;20056;-71
2023/04/10 09:11:23;;;;;;;16.35;9.25;;;;;;;10.21;86.77;99152.50;4161974;28;20069;-71
2023/04/10 09:13:43;;;;;;;15.82;8.98;;;;;;;10.38;85.33;99146.59;4160407;28;20045;-71
2023/04/10 09:15:58;;;;;;;14.98;9.68;;;;;;;10.36;84.66;99143.41;4164140;28;20481;-71
2023/04/10 09:18:02;;;;;;;15.35;9.38;;;;;;;10.41;86.54;99129.28;4162674;28;20036;-71
2023/04/10 09:20:19;;;;;;;13.95;9.00;;;;;;;10.47;84.50;99130.59;4160338;28;20049;-71